sensor_id;sensor_type;location;lat;lon;timestamp;noise_LAeq;noise_LA_min;noise_LA_max;noise_LA01;noise_LA95
71020;Laerm;58902;51.436;5.980;2024-01-27T00:00:01;35.49;32.12;38.84;;
71020;Laerm;58902;51.436;5.980;2024-01-27T00:00:11;32.30;30.37;33.88;;
71020;Laerm;58902;51.436;5.980;2024-01-27T00:00:22;33.47;30.91;36.87;;
71020;Laerm;58902;51.436;5.980;2024-01-27T00:00:32;33.00;30.91;35.89;;
71020;Laerm;58902;51.436;5.980;2024-01-27T00:00:42;31.46;29.81;34.25;;
71020;Laerm;58902;51.436;5.980;2024-01-27T00:00:53;30.93;29.03;33.21;;
71020;Laerm;58902;51.436;5.980;2024-01-27T00:01:03;30.91;29.20;32.68;;
71020;Laerm;58902;51.436;5.980;2024-01-27T00:01:14;31.04;29.36;32.52;;
71020;Laerm;58902;51.436;5.980;2024-01-27T00:01:24;30.91;29.45;33.80;;
71020;Laerm;58902;51.436;5.980;2024-01-27T00:01:35;30.77;29.45;32.43;;
71020;Laerm;58902;51.436;5.980;2024-01-27T00:01:45;30.47;29.05;32.78;;
71020;Laerm;58902;51.436;5.980;2024-01-27T00:01:55;31.13;29.04;33.10;;
71020;Laerm;58902;51.436;5.980;2024-01-27T00:02:06;31.81;29.89;34.11;;
71020;Laerm;58902;51.436;5.980;2024-01-27T00:02:16;37.02;31.22;42.22;;
71020;Laerm;58902;51.436;5.980;2024-01-27T00:02:27;36.01;30.03;40.85;;
71020;Laerm;58902;51.436;5.980;2024-01-27T00:02:37;31.58;29.74;33.57;;
71020;Laerm;58902;51.436;5.980;2024-01-27T00:02:48;32.00;29.82;34.83;;
71020;Laerm;58902;51.436;5.980;2024-01-27T00:02:58;31.68;29.95;34.12;;
71020;Laerm;58902;51.436;5.980;2024-01-27T00:03:08;33.98;31.12;36.55;;
71020;Laerm;58902;51.436;5.980;2024-01-27T00:03:19;32.09;30.23;33.77;;
71020;Laerm;58902;51.436;5.980;2024-01-27T00:03:29;31.36;29.89;34.79;;
71020;Laerm;58902;51.436;5.980;2024-01-27T00:03:39;30.61;29.22;32.71;;
71020;Laerm;58902;51.436;5.980;2024-01-27T00:03:50;30.56;29.30;33.00;;
71020;Laerm;58902;51.436;5.980;2024-01-27T00:04:00;30.60;29.23;33.15;;
71020;Laerm;58902;51.436;5.980;2024-01-27T00:04:11;30.81;29.12;34.24;;
71020;Laerm;58902;51.436;5.980;2024-01-27T00:04:21;30.70;28.94;34.69;;
71020;Laerm;58902;51.436;5.980;2024-01-27T00:04:32;30.74;29.10;35.21;;
71020;Laerm;58902;51.436;5.980;2024-01-27T00:04:42;33.14;29.61;39.33;;
71020;Laerm;58902;51.436;5.980;2024-01-27T00:04:53;40.40;34.73;44.41;;
71020;Laerm;58902;51.436;5.980;2024-01-27T00:05:03;32.56;29.24;36.93;;
71020;Laerm;58902;51.436;5.980;2024-01-27T00:05:13;29.93;28.87;31.56;;
71020;Laerm;58902;51.436;5.980;2024-01-27T00:05:24;30.00;28.80;31.94;;
71020;Laerm;58902;51.436;5.980;2024-01-27T00:05:38;30.66;29.51;32.20;;
71020;Laerm;58902;51.436;5.980;2024-01-27T00:05:48;30.47;29.36;32.17;;
71020;Laerm;58902;51.436;5.980;2024-01-27T00:05:58;30.81;29.21;32.77;;
71020;Laerm;58902;51.436;5.980;2024-01-27T00:06:09;31.32;29.63;33.01;;
71020;Laerm;58902;51.436;5.980;2024-01-27T00:06:19;31.39;29.43;32.99;;
71020;Laerm;58902;51.436;5.980;2024-01-27T00:06:29;31.54;30.32;32.80;;
71020;Laerm;58902;51.436;5.980;2024-01-27T00:06:40;31.37;29.81;33.05;;
71020;Laerm;58902;51.436;5.980;2024-01-27T00:06:50;31.28;29.98;32.34;;
71020;Laerm;58902;51.436;5.980;2024-01-27T00:07:00;31.47;30.08;33.18;;
71020;Laerm;58902;51.436;5.980;2024-01-27T00:07:11;32.07;30.44;34.20;;
71020;Laerm;58902;51.436;5.980;2024-01-27T00:07:21;34.83;31.29;39.32;;
71020;Laerm;58902;51.436;5.980;2024-01-27T00:07:32;34.81;33.00;37.30;;
71020;Laerm;58902;51.436;5.980;2024-01-27T00:07:42;35.42;32.89;37.69;;
71020;Laerm;58902;51.436;5.980;2024-01-27T00:07:52;36.10;34.05;37.77;;
71020;Laerm;58902;51.436;5.980;2024-01-27T00:08:03;35.66;33.58;38.13;;
71020;Laerm;58902;51.436;5.980;2024-01-27T00:08:13;32.49;30.57;35.61;;
71020;Laerm;58902;51.436;5.980;2024-01-27T00:08:23;33.08;30.73;36.26;;
71020;Laerm;58902;51.436;5.980;2024-01-27T00:08:34;32.28;30.62;34.22;;
71020;Laerm;58902;51.436;5.980;2024-01-27T00:08:45;32.63;30.16;35.81;;
71020;Laerm;58902;51.436;5.980;2024-01-27T00:08:55;32.57;30.98;33.88;;
71020;Laerm;58902;51.436;5.980;2024-01-27T00:09:05;33.61;31.85;36.56;;
71020;Laerm;58902;51.436;5.980;2024-01-27T00:09:16;36.47;34.47;38.16;;
71020;Laerm;58902;51.436;5.980;2024-01-27T00:09:26;36.06;34.66;37.80;;
71020;Laerm;58902;51.436;5.980;2024-01-27T00:09:36;34.62;30.78;36.29;;
71020;Laerm;58902;51.436;5.980;2024-01-27T00:09:47;31.50;30.01;32.74;;
71020;Laerm;58902;51.436;5.980;2024-01-27T00:09:57;31.22;30.04;32.72;;
71020;Laerm;58902;51.436;5.980;2024-01-27T00:10:09;31.30;29.94;32.55;;
71020;Laerm;58902;51.436;5.980;2024-01-27T00:10:19;31.25;29.87;32.45;;
71020;Laerm;58902;51.436;5.980;2024-01-27T00:10:30;31.71;30.51;33.40;;
71020;Laerm;58902;51.436;5.980;2024-01-27T00:10:40;31.58;29.36;34.05;;
71020;Laerm;58902;51.436;5.980;2024-01-27T00:10:51;31.69;29.46;37.82;;
71020;Laerm;58902;51.436;5.980;2024-01-27T00:11:01;36.44;32.03;39.77;;
71020;Laerm;58902;51.436;5.980;2024-01-27T00:11:11;34.57;31.64;38.38;;
71020;Laerm;58902;51.436;5.980;2024-01-27T00:11:22;31.11;29.13;34.47;;
71020;Laerm;58902;51.436;5.980;2024-01-27T00:11:34;30.73;29.07;32.85;;
71020;Laerm;58902;51.436;5.980;2024-01-27T00:11:45;32.86;30.28;37.39;;
71020;Laerm;58902;51.436;5.980;2024-01-27T00:11:55;39.21;36.52;42.24;;
71020;Laerm;58902;51.436;5.980;2024-01-27T00:12:06;35.86;32.35;40.03;;
71020;Laerm;58902;51.436;5.980;2024-01-27T00:12:16;31.01;29.59;33.23;;
71020;Laerm;58902;51.436;5.980;2024-01-27T00:12:26;31.93;30.03;33.33;;
71020;Laerm;58902;51.436;5.980;2024-01-27T00:12:37;30.39;29.09;31.96;;
71020;Laerm;58902;51.436;5.980;2024-01-27T00:12:47;30.82;29.19;32.21;;
71020;Laerm;58902;51.436;5.980;2024-01-27T00:12:57;30.29;29.18;32.07;;
71020;Laerm;58902;51.436;5.980;2024-01-27T00:13:08;31.03;29.46;34.45;;
71020;Laerm;58902;51.436;5.980;2024-01-27T00:13:18;31.76;30.63;33.31;;
71020;Laerm;58902;51.436;5.980;2024-01-27T00:13:29;31.84;29.88;35.03;;
71020;Laerm;58902;51.436;5.980;2024-01-27T00:13:39;31.65;29.58;37.05;;
71020;Laerm;58902;51.436;5.980;2024-01-27T00:13:49;31.13;29.59;33.49;;
71020;Laerm;58902;51.436;5.980;2024-01-27T00:14:00;30.73;29.10;32.52;;
71020;Laerm;58902;51.436;5.980;2024-01-27T00:14:11;31.41;29.24;35.74;;
71020;Laerm;58902;51.436;5.980;2024-01-27T00:14:21;31.56;30.36;33.21;;
71020;Laerm;58902;51.436;5.980;2024-01-27T00:14:32;31.53;30.24;33.36;;
71020;Laerm;58902;51.436;5.980;2024-01-27T00:14:42;32.45;29.22;35.88;;
71020;Laerm;58902;51.436;5.980;2024-01-27T00:14:53;31.66;30.50;33.37;;
71020;Laerm;58902;51.436;5.980;2024-01-27T00:15:06;32.28;30.40;33.47;;
71020;Laerm;58902;51.436;5.980;2024-01-27T00:15:17;32.83;30.32;34.83;;
71020;Laerm;58902;51.436;5.980;2024-01-27T00:15:27;33.87;32.45;36.06;;
71020;Laerm;58902;51.436;5.980;2024-01-27T00:15:37;33.87;32.38;35.45;;
71020;Laerm;58902;51.436;5.980;2024-01-27T00:15:48;32.71;30.76;34.43;;
71020;Laerm;58902;51.436;5.980;2024-01-27T00:15:58;31.66;29.83;33.85;;
71020;Laerm;58902;51.436;5.980;2024-01-27T00:16:08;33.88;31.23;38.39;;
71020;Laerm;58902;51.436;5.980;2024-01-27T00:16:19;36.62;31.88;42.01;;
71020;Laerm;58902;51.436;5.980;2024-01-27T00:16:29;36.40;32.20;43.28;;
71020;Laerm;58902;51.436;5.980;2024-01-27T00:16:39;34.21;31.65;35.69;;
71020;Laerm;58902;51.436;5.980;2024-01-27T00:16:50;33.85;31.41;35.74;;
71020;Laerm;58902;51.436;5.980;2024-01-27T00:17:00;32.80;30.99;35.21;;
71020;Laerm;58902;51.436;5.980;2024-01-27T00:17:11;34.55;31.98;35.91;;
71020;Laerm;58902;51.436;5.980;2024-01-27T00:17:21;32.16;30.52;33.98;;
71020;Laerm;58902;51.436;5.980;2024-01-27T00:17:34;31.34;29.46;32.73;;
71020;Laerm;58902;51.436;5.980;2024-01-27T00:17:45;30.81;29.37;37.01;;
71020;Laerm;58902;51.436;5.980;2024-01-27T00:17:56;31.21;29.60;33.01;;
71020;Laerm;58902;51.436;5.980;2024-01-27T00:18:06;31.51;29.75;34.69;;
71020;Laerm;58902;51.436;5.980;2024-01-27T00:18:16;30.70;29.51;32.32;;
71020;Laerm;58902;51.436;5.980;2024-01-27T00:18:27;30.50;29.10;35.46;;
71020;Laerm;58902;51.436;5.980;2024-01-27T00:18:37;30.48;29.30;32.25;;
71020;Laerm;58902;51.436;5.980;2024-01-27T00:18:48;30.64;28.95;33.66;;
71020;Laerm;58902;51.436;5.980;2024-01-27T00:18:58;30.75;29.54;32.03;;
71020;Laerm;58902;51.436;5.980;2024-01-27T00:19:08;30.60;29.20;32.58;;
71020;Laerm;58902;51.436;5.980;2024-01-27T00:19:19;31.44;30.23;32.97;;
71020;Laerm;58902;51.436;5.980;2024-01-27T00:19:29;32.11;30.24;33.92;;
71020;Laerm;58902;51.436;5.980;2024-01-27T00:19:40;34.71;30.03;43.50;;
71020;Laerm;58902;51.436;5.980;2024-01-27T00:19:53;32.51;30.06;34.95;;
71020;Laerm;58902;51.436;5.980;2024-01-27T00:20:03;31.30;29.20;34.61;;
71020;Laerm;58902;51.436;5.980;2024-01-27T00:20:13;32.54;30.25;36.02;;
71020;Laerm;58902;51.436;5.980;2024-01-27T00:20:24;37.30;33.93;41.08;;
71020;Laerm;58902;51.436;5.980;2024-01-27T00:20:34;34.23;29.89;38.78;;
71020;Laerm;58902;51.436;5.980;2024-01-27T00:20:45;30.96;29.65;32.28;;
71020;Laerm;58902;51.436;5.980;2024-01-27T00:20:55;31.06;29.78;33.15;;
71020;Laerm;58902;51.436;5.980;2024-01-27T00:21:06;30.74;28.97;32.10;;
71020;Laerm;58902;51.436;5.980;2024-01-27T00:21:16;30.52;29.07;32.28;;
71020;Laerm;58902;51.436;5.980;2024-01-27T00:21:26;30.24;29.00;32.39;;
71020;Laerm;58902;51.436;5.980;2024-01-27T00:21:37;30.43;29.10;33.36;;
71020;Laerm;58902;51.436;5.980;2024-01-27T00:21:48;31.74;29.81;36.68;;
71020;Laerm;58902;51.436;5.980;2024-01-27T00:21:58;32.54;30.48;35.26;;
71020;Laerm;58902;51.436;5.980;2024-01-27T00:22:09;35.40;31.61;40.05;;
71020;Laerm;58902;51.436;5.980;2024-01-27T00:22:19;38.12;34.05;41.68;;
71020;Laerm;58902;51.436;5.980;2024-01-27T00:22:30;37.93;33.61;42.98;;
71020;Laerm;58902;51.436;5.980;2024-01-27T00:22:41;33.29;30.16;38.84;;
71020;Laerm;58902;51.436;5.980;2024-01-27T00:22:51;32.94;30.71;35.25;;
71020;Laerm;58902;51.436;5.980;2024-01-27T00:23:02;34.88;32.13;39.20;;
71020;Laerm;58902;51.436;5.980;2024-01-27T00:23:12;34.35;31.40;37.01;;
71020;Laerm;58902;51.436;5.980;2024-01-27T00:23:22;34.71;33.41;37.66;;
71020;Laerm;58902;51.436;5.980;2024-01-27T00:23:33;34.57;33.15;36.56;;
71020;Laerm;58902;51.436;5.980;2024-01-27T00:23:44;33.17;31.32;36.22;;
71020;Laerm;58902;51.436;5.980;2024-01-27T00:23:54;33.45;31.66;35.60;;
71020;Laerm;58902;51.436;5.980;2024-01-27T00:24:10;33.54;30.58;38.20;;
71020;Laerm;58902;51.436;5.980;2024-01-27T00:24:21;33.61;32.06;36.84;;
71020;Laerm;58902;51.436;5.980;2024-01-27T00:24:31;33.78;32.49;36.53;;
71020;Laerm;58902;51.436;5.980;2024-01-27T00:24:41;32.91;29.69;35.92;;
71020;Laerm;58902;51.436;5.980;2024-01-27T00:24:52;31.23;29.85;33.04;;
71020;Laerm;58902;51.436;5.980;2024-01-27T00:25:02;32.15;30.40;35.98;;
71020;Laerm;58902;51.436;5.980;2024-01-27T00:25:13;31.41;30.07;37.14;;
71020;Laerm;58902;51.436;5.980;2024-01-27T00:25:23;31.50;29.81;35.79;;
71020;Laerm;58902;51.436;5.980;2024-01-27T00:25:33;31.66;29.29;36.94;;
71020;Laerm;58902;51.436;5.980;2024-01-27T00:25:44;31.34;29.85;33.01;;
71020;Laerm;58902;51.436;5.980;2024-01-27T00:25:54;32.63;30.80;34.49;;
71020;Laerm;58902;51.436;5.980;2024-01-27T00:26:04;34.54;31.77;36.60;;
71020;Laerm;58902;51.436;5.980;2024-01-27T00:26:15;39.26;34.59;43.22;;
71020;Laerm;58902;51.436;5.980;2024-01-27T00:26:25;34.08;30.68;38.41;;
71020;Laerm;58902;51.436;5.980;2024-01-27T00:26:36;31.31;30.15;33.21;;
71020;Laerm;58902;51.436;5.980;2024-01-27T00:26:47;30.69;28.98;32.40;;
71020;Laerm;58902;51.436;5.980;2024-01-27T00:26:57;30.35;28.91;31.95;;
71020;Laerm;58902;51.436;5.980;2024-01-27T00:27:07;30.51;29.24;32.21;;
71020;Laerm;58902;51.436;5.980;2024-01-27T00:27:18;30.76;29.39;35.65;;
71020;Laerm;58902;51.436;5.980;2024-01-27T00:27:28;30.88;29.56;33.74;;
71020;Laerm;58902;51.436;5.980;2024-01-27T00:27:38;30.79;29.32;32.94;;
71020;Laerm;58902;51.436;5.980;2024-01-27T00:27:49;30.99;29.49;32.49;;
71020;Laerm;58902;51.436;5.980;2024-01-27T00:27:59;31.03;29.47;34.18;;
71020;Laerm;58902;51.436;5.980;2024-01-27T00:28:09;40.94;30.39;45.05;;
71020;Laerm;58902;51.436;5.980;2024-01-27T00:28:20;43.09;33.89;46.51;;
71020;Laerm;58902;51.436;5.980;2024-01-27T00:28:30;36.75;33.91;38.54;;
71020;Laerm;58902;51.436;5.980;2024-01-27T00:28:40;36.84;33.95;39.87;;
71020;Laerm;58902;51.436;5.980;2024-01-27T00:28:51;37.80;34.20;40.80;;
71020;Laerm;58902;51.436;5.980;2024-01-27T00:29:01;61.17;35.49;76.72;;
71020;Laerm;58902;51.436;5.980;2024-01-27T00:29:11;74.11;68.73;82.69;;
71020;Laerm;58902;51.436;5.980;2024-01-27T00:29:22;72.08;68.86;76.48;;
71020;Laerm;58902;51.436;5.980;2024-01-27T00:29:32;65.18;40.66;75.40;;
71020;Laerm;58902;51.436;5.980;2024-01-27T00:29:43;39.27;34.36;43.63;;
71020;Laerm;58902;51.436;5.980;2024-01-27T00:29:53;32.68;29.99;36.13;;
71020;Laerm;58902;51.436;5.980;2024-01-27T00:30:04;30.98;29.52;38.89;;
71020;Laerm;58902;51.436;5.980;2024-01-27T00:30:14;30.46;29.25;32.08;;
71020;Laerm;58902;51.436;5.980;2024-01-27T00:30:24;30.66;29.34;32.44;;
71020;Laerm;58902;51.436;5.980;2024-01-27T00:30:36;30.42;29.27;32.50;;
71020;Laerm;58902;51.436;5.980;2024-01-27T00:30:46;30.16;29.04;31.45;;
71020;Laerm;58902;51.436;5.980;2024-01-27T00:30:57;30.38;29.06;32.02;;
71020;Laerm;58902;51.436;5.980;2024-01-27T00:31:07;30.67;29.20;32.35;;
71020;Laerm;58902;51.436;5.980;2024-01-27T00:31:17;31.33;30.12;32.89;;
71020;Laerm;58902;51.436;5.980;2024-01-27T00:31:28;31.39;30.31;33.01;;
71020;Laerm;58902;51.436;5.980;2024-01-27T00:31:38;31.20;30.01;32.53;;
71020;Laerm;58902;51.436;5.980;2024-01-27T00:31:48;31.67;30.09;33.48;;
71020;Laerm;58902;51.436;5.980;2024-01-27T00:32:04;31.88;30.59;33.78;;
71020;Laerm;58902;51.436;5.980;2024-01-27T00:32:15;32.45;30.20;35.06;;
71020;Laerm;58902;51.436;5.980;2024-01-27T00:32:25;32.37;30.99;34.64;;
71020;Laerm;58902;51.436;5.980;2024-01-27T00:32:35;33.47;31.82;35.42;;
71020;Laerm;58902;51.436;5.980;2024-01-27T00:32:46;35.06;30.73;40.79;;
71020;Laerm;58902;51.436;5.980;2024-01-27T00:32:56;40.55;34.79;44.77;;
71020;Laerm;58902;51.436;5.980;2024-01-27T00:33:07;34.12;31.64;36.56;;
71020;Laerm;58902;51.436;5.980;2024-01-27T00:33:17;36.74;34.50;38.34;;
71020;Laerm;58902;51.436;5.980;2024-01-27T00:33:27;36.92;35.83;38.16;;
71020;Laerm;58902;51.436;5.980;2024-01-27T00:33:38;36.01;32.29;37.52;;
71020;Laerm;58902;51.436;5.980;2024-01-27T00:33:48;35.62;33.99;37.01;;
71020;Laerm;58902;51.436;5.980;2024-01-27T00:33:58;33.69;31.75;35.07;;
71020;Laerm;58902;51.436;5.980;2024-01-27T00:34:09;33.95;32.05;37.15;;
71020;Laerm;58902;51.436;5.980;2024-01-27T00:34:19;34.35;31.59;37.04;;
71020;Laerm;58902;51.436;5.980;2024-01-27T00:34:29;34.12;32.55;36.27;;
71020;Laerm;58902;51.436;5.980;2024-01-27T00:34:40;33.20;31.42;35.23;;
71020;Laerm;58902;51.436;5.980;2024-01-27T00:34:50;32.21;30.21;34.12;;
71020;Laerm;58902;51.436;5.980;2024-01-27T00:35:01;31.29;29.98;34.17;;
71020;Laerm;58902;51.436;5.980;2024-01-27T00:35:11;31.18;29.67;33.84;;
71020;Laerm;58902;51.436;5.980;2024-01-27T00:35:24;31.38;29.58;34.42;;
71020;Laerm;58902;51.436;5.980;2024-01-27T00:35:35;33.82;31.93;36.83;;
71020;Laerm;58902;51.436;5.980;2024-01-27T00:35:45;33.23;31.32;34.58;;
71020;Laerm;58902;51.436;5.980;2024-01-27T00:35:56;32.66;29.80;35.64;;
71020;Laerm;58902;51.436;5.980;2024-01-27T00:36:06;31.36;29.57;35.82;;
71020;Laerm;58902;51.436;5.980;2024-01-27T00:36:16;31.64;30.12;35.38;;
71020;Laerm;58902;51.436;5.980;2024-01-27T00:36:28;32.98;30.45;36.24;;
71020;Laerm;58902;51.436;5.980;2024-01-27T00:36:38;31.74;29.38;48.60;;
71020;Laerm;58902;51.436;5.980;2024-01-27T00:36:48;31.09;29.88;32.61;;
71020;Laerm;58902;51.436;5.980;2024-01-27T00:36:59;32.04;30.23;34.12;;
71020;Laerm;58902;51.436;5.980;2024-01-27T00:37:10;33.51;30.93;35.90;;
71020;Laerm;58902;51.436;5.980;2024-01-27T00:37:20;31.75;29.27;35.80;;
71020;Laerm;58902;51.436;5.980;2024-01-27T00:37:31;30.19;28.62;32.33;;
71020;Laerm;58902;51.436;5.980;2024-01-27T00:37:41;30.45;28.95;33.67;;
71020;Laerm;58902;51.436;5.980;2024-01-27T00:37:52;34.57;29.92;38.06;;
71020;Laerm;58902;51.436;5.980;2024-01-27T00:38:03;38.59;33.40;43.54;;
71020;Laerm;58902;51.436;5.980;2024-01-27T00:38:13;41.81;35.40;44.86;;
71020;Laerm;58902;51.436;5.980;2024-01-27T00:38:23;35.70;33.99;37.38;;
71020;Laerm;58902;51.436;5.980;2024-01-27T00:38:34;36.97;34.82;38.74;;
71020;Laerm;58902;51.436;5.980;2024-01-27T00:38:44;38.36;36.00;41.55;;
71020;Laerm;58902;51.436;5.980;2024-01-27T00:38:54;74.08;40.01;82.40;;
71020;Laerm;58902;51.436;5.980;2024-01-27T00:39:05;74.66;70.02;78.61;;
71020;Laerm;58902;51.436;5.980;2024-01-27T00:39:16;69.81;43.80;79.97;;
71020;Laerm;58902;51.436;5.980;2024-01-27T00:39:26;42.88;37.14;47.60;;
71020;Laerm;58902;51.436;5.980;2024-01-27T00:39:37;38.06;34.10;49.61;;
71020;Laerm;58902;51.436;5.980;2024-01-27T00:39:47;34.64;32.84;36.17;;
71020;Laerm;58902;51.436;5.980;2024-01-27T00:39:58;35.81;32.57;38.68;;
71020;Laerm;58902;51.436;5.980;2024-01-27T00:40:10;34.64;31.87;37.28;;
71020;Laerm;58902;51.436;5.980;2024-01-27T00:40:20;35.11;32.23;37.65;;
71020;Laerm;58902;51.436;5.980;2024-01-27T00:40:31;34.97;33.53;36.01;;
71020;Laerm;58902;51.436;5.980;2024-01-27T00:40:41;35.11;33.43;36.28;;
71020;Laerm;58902;51.436;5.980;2024-01-27T00:40:51;34.56;32.04;36.14;;
71020;Laerm;58902;51.436;5.980;2024-01-27T00:41:03;31.87;29.66;34.68;;
71020;Laerm;58902;51.436;5.980;2024-01-27T00:41:16;31.92;30.43;33.44;;
71020;Laerm;58902;51.436;5.980;2024-01-27T00:41:27;31.89;29.95;34.47;;
71020;Laerm;58902;51.436;5.980;2024-01-27T00:41:37;32.53;31.11;34.20;;
71020;Laerm;58902;51.436;5.980;2024-01-27T00:41:48;33.39;30.87;36.21;;
71020;Laerm;58902;51.436;5.980;2024-01-27T00:41:58;31.39;29.65;34.03;;
71020;Laerm;58902;51.436;5.980;2024-01-27T00:42:09;30.76;29.59;32.33;;
71020;Laerm;58902;51.436;5.980;2024-01-27T00:42:19;30.67;29.15;32.45;;
71020;Laerm;58902;51.436;5.980;2024-01-27T00:42:34;30.56;29.17;33.09;;
71020;Laerm;58902;51.436;5.980;2024-01-27T00:42:44;30.31;28.96;32.02;;
71020;Laerm;58902;51.436;5.980;2024-01-27T00:42:54;30.55;29.34;32.43;;
71020;Laerm;58902;51.436;5.980;2024-01-27T00:43:05;30.88;29.61;32.16;;
71020;Laerm;58902;51.436;5.980;2024-01-27T00:43:15;31.02;29.88;32.80;;
71020;Laerm;58902;51.436;5.980;2024-01-27T00:43:26;31.47;30.04;33.58;;
71020;Laerm;58902;51.436;5.980;2024-01-27T00:43:36;31.99;30.80;33.17;;
71020;Laerm;58902;51.436;5.980;2024-01-27T00:43:46;31.60;30.09;32.92;;
71020;Laerm;58902;51.436;5.980;2024-01-27T00:43:57;31.68;30.03;33.65;;
71020;Laerm;58902;51.436;5.980;2024-01-27T00:44:07;31.52;30.36;32.77;;
71020;Laerm;58902;51.436;5.980;2024-01-27T00:44:17;31.79;30.64;33.03;;
71020;Laerm;58902;51.436;5.980;2024-01-27T00:44:28;32.07;30.76;33.68;;
71020;Laerm;58902;51.436;5.980;2024-01-27T00:44:39;32.36;30.69;38.20;;
71020;Laerm;58902;51.436;5.980;2024-01-27T00:44:49;32.27;31.06;33.35;;
71020;Laerm;58902;51.436;5.980;2024-01-27T00:45:00;31.57;29.79;33.66;;
71020;Laerm;58902;51.436;5.980;2024-01-27T00:45:10;31.25;30.00;34.69;;
71020;Laerm;58902;51.436;5.980;2024-01-27T00:45:20;30.66;29.37;33.42;;
71020;Laerm;58902;51.436;5.980;2024-01-27T00:45:34;30.86;29.65;32.42;;
71020;Laerm;58902;51.436;5.980;2024-01-27T00:45:45;30.35;29.22;31.84;;
71020;Laerm;58902;51.436;5.980;2024-01-27T00:45:55;30.32;29.19;31.78;;
71020;Laerm;58902;51.436;5.980;2024-01-27T00:46:06;30.05;28.65;31.94;;
71020;Laerm;58902;51.436;5.980;2024-01-27T00:46:16;29.96;28.81;32.60;;
71020;Laerm;58902;51.436;5.980;2024-01-27T00:46:26;30.07;28.98;31.25;;
71020;Laerm;58902;51.436;5.980;2024-01-27T00:46:37;29.91;28.62;32.11;;
71020;Laerm;58902;51.436;5.980;2024-01-27T00:46:48;30.40;28.88;32.19;;
71020;Laerm;58902;51.436;5.980;2024-01-27T00:46:58;34.12;31.04;37.33;;
71020;Laerm;58902;51.436;5.980;2024-01-27T00:47:08;32.01;29.84;34.70;;
71020;Laerm;58902;51.436;5.980;2024-01-27T00:47:19;30.63;29.34;32.09;;
71020;Laerm;58902;51.436;5.980;2024-01-27T00:47:29;29.75;28.41;32.04;;
71020;Laerm;58902;51.436;5.980;2024-01-27T00:47:39;29.45;28.16;31.10;;
71020;Laerm;58902;51.436;5.980;2024-01-27T00:47:50;29.50;28.45;31.18;;
71020;Laerm;58902;51.436;5.980;2024-01-27T00:48:00;29.58;28.40;31.71;;
71020;Laerm;58902;51.436;5.980;2024-01-27T00:48:11;29.58;28.19;30.98;;
71020;Laerm;58902;51.436;5.980;2024-01-27T00:48:21;29.68;28.57;31.19;;
71020;Laerm;58902;51.436;5.980;2024-01-27T00:48:32;29.92;28.56;35.22;;
71020;Laerm;58902;51.436;5.980;2024-01-27T00:48:43;29.99;28.88;31.69;;
71020;Laerm;58902;51.436;5.980;2024-01-27T00:48:53;30.30;28.90;31.67;;
71020;Laerm;58902;51.436;5.980;2024-01-27T00:49:03;30.71;29.13;32.45;;
71020;Laerm;58902;51.436;5.980;2024-01-27T00:49:13;30.59;29.04;32.17;;
71020;Laerm;58902;51.436;5.980;2024-01-27T00:49:24;30.36;29.36;31.58;;
71020;Laerm;58902;51.436;5.980;2024-01-27T00:49:35;30.40;29.22;31.91;;
71020;Laerm;58902;51.436;5.980;2024-01-27T00:49:45;30.49;29.54;32.79;;
71020;Laerm;58902;51.436;5.980;2024-01-27T00:49:55;30.51;29.34;32.03;;
71020;Laerm;58902;51.436;5.980;2024-01-27T00:50:06;30.49;29.13;35.86;;
71020;Laerm;58902;51.436;5.980;2024-01-27T00:50:18;30.60;29.27;34.57;;
71020;Laerm;58902;51.436;5.980;2024-01-27T00:50:28;30.94;29.20;32.30;;
71020;Laerm;58902;51.436;5.980;2024-01-27T00:50:39;31.09;29.63;32.62;;
71020;Laerm;58902;51.436;5.980;2024-01-27T00:50:49;31.13;29.79;33.18;;
71020;Laerm;58902;51.436;5.980;2024-01-27T00:51:00;30.97;29.75;33.40;;
71020;Laerm;58902;51.436;5.980;2024-01-27T00:51:10;31.19;29.44;34.82;;
71020;Laerm;58902;51.436;5.980;2024-01-27T00:51:20;30.89;29.35;32.43;;
71020;Laerm;58902;51.436;5.980;2024-01-27T00:51:31;32.23;29.91;35.42;;
71020;Laerm;58902;51.436;5.980;2024-01-27T00:51:41;31.52;30.06;33.03;;
71020;Laerm;58902;51.436;5.980;2024-01-27T00:51:52;32.76;30.62;35.79;;
71020;Laerm;58902;51.436;5.980;2024-01-27T00:52:02;46.32;33.85;50.78;;
71020;Laerm;58902;51.436;5.980;2024-01-27T00:52:13;36.40;33.72;39.98;;
71020;Laerm;58902;51.436;5.980;2024-01-27T00:52:23;33.31;30.03;36.46;;
71020;Laerm;58902;51.436;5.980;2024-01-27T00:52:34;31.42;29.92;32.96;;
71020;Laerm;58902;51.436;5.980;2024-01-27T00:52:45;30.77;29.42;32.93;;
71020;Laerm;58902;51.436;5.980;2024-01-27T00:52:55;30.58;28.82;32.56;;
71020;Laerm;58902;51.436;5.980;2024-01-27T00:53:05;30.19;28.88;32.29;;
71020;Laerm;58902;51.436;5.980;2024-01-27T00:53:16;29.95;28.87;31.46;;
71020;Laerm;58902;51.436;5.980;2024-01-27T00:53:26;29.80;28.58;31.35;;
71020;Laerm;58902;51.436;5.980;2024-01-27T00:53:36;29.85;28.31;31.85;;
71020;Laerm;58902;51.436;5.980;2024-01-27T00:53:47;29.89;28.81;31.30;;
71020;Laerm;58902;51.436;5.980;2024-01-27T00:53:57;29.75;28.59;31.80;;
71020;Laerm;58902;51.436;5.980;2024-01-27T00:54:07;29.94;28.80;31.41;;
71020;Laerm;58902;51.436;5.980;2024-01-27T00:54:18;30.10;28.76;32.19;;
71020;Laerm;58902;51.436;5.980;2024-01-27T00:54:28;30.07;28.72;32.53;;
71020;Laerm;58902;51.436;5.980;2024-01-27T00:54:38;30.30;29.16;31.74;;
71020;Laerm;58902;51.436;5.980;2024-01-27T00:54:49;30.44;29.39;31.67;;
71020;Laerm;58902;51.436;5.980;2024-01-27T00:54:59;31.24;29.98;32.69;;
71020;Laerm;58902;51.436;5.980;2024-01-27T00:55:09;31.18;29.82;32.89;;
71020;Laerm;58902;51.436;5.980;2024-01-27T00:55:20;31.72;29.72;37.17;;
71020;Laerm;58902;51.436;5.980;2024-01-27T00:55:30;33.09;31.82;34.56;;
71020;Laerm;58902;51.436;5.980;2024-01-27T00:55:41;32.98;31.64;34.44;;
71020;Laerm;58902;51.436;5.980;2024-01-27T00:55:52;33.68;31.26;35.59;;
71020;Laerm;58902;51.436;5.980;2024-01-27T00:56:03;33.47;31.91;42.04;;
71020;Laerm;58902;51.436;5.980;2024-01-27T00:56:13;34.16;31.92;35.65;;
71020;Laerm;58902;51.436;5.980;2024-01-27T00:56:23;32.68;30.36;35.47;;
71020;Laerm;58902;51.436;5.980;2024-01-27T00:56:34;32.51;30.53;34.67;;
71020;Laerm;58902;51.436;5.980;2024-01-27T00:56:44;33.78;31.87;35.53;;
71020;Laerm;58902;51.436;5.980;2024-01-27T00:56:54;33.07;31.28;34.90;;
71020;Laerm;58902;51.436;5.980;2024-01-27T00:57:05;32.44;30.75;35.28;;
71020;Laerm;58902;51.436;5.980;2024-01-27T00:57:15;33.14;31.52;35.01;;
71020;Laerm;58902;51.436;5.980;2024-01-27T00:57:26;31.78;30.06;33.85;;
71020;Laerm;58902;51.436;5.980;2024-01-27T00:57:36;31.01;29.56;32.32;;
71020;Laerm;58902;51.436;5.980;2024-01-27T00:57:49;31.21;29.82;33.62;;
71020;Laerm;58902;51.436;5.980;2024-01-27T00:58:00;30.97;29.65;32.59;;
71020;Laerm;58902;51.436;5.980;2024-01-27T00:58:11;31.03;29.52;32.26;;
71020;Laerm;58902;51.436;5.980;2024-01-27T00:58:21;31.17;30.05;33.10;;
71020;Laerm;58902;51.436;5.980;2024-01-27T00:58:31;31.75;30.26;33.35;;
71020;Laerm;58902;51.436;5.980;2024-01-27T00:58:42;31.95;30.59;33.66;;
71020;Laerm;58902;51.436;5.980;2024-01-27T00:58:52;32.44;30.61;35.12;;
71020;Laerm;58902;51.436;5.980;2024-01-27T00:59:02;35.08;32.36;38.20;;